Flight Track Log - Related Links

Times and Time Zones

All times are in EDT time to prevent confusion due to time zone crossing. See the SKW7363 flight status page for this flight to view local times or setup timezone preferences in your user account.


Time Position Orientation Groundspeed Altitude Reporting Facility
EDT Latitude Longitude Course Direction KTS MPH feet Rate Location/Type
Sat 05:41:30 PM 40.7711 -111.9744 North 167 192 5,100  Level Salt Lake Center
Sat 05:42:43 PM 40.7469 -112.0478 247° West 242 278 6,800 1,748 Climbing Salt Lake Center
Sat 05:43:37 PM 40.7947 -112.1167 313° West 275 316 8,800 2,386 Climbing Salt Lake Center
Sat 05:44:00 PM 40.9585 -112.2333 North  Level FlightAware Approximate
Sat 05:44:11 PM 40.8283 -112.1517 322° Northwest 274 315 10,300  Level Salt Lake Center
Sat 05:45:00 PM 41.0126 -112.1328 81° East  Level FlightAware Approximate
Sat 05:45:12 PM 40.8975 -112.1925 336° Northwest 291 335 12,300  Level Salt Lake Center
Sat 05:46:00 PM 41.0763 -112.0167 North  Level FlightAware Approximate
Sat 05:46:14 PM 40.9667 -112.1242 37° Northeast 312 359 14,200  Level Salt Lake Center
Sat 05:47:15 PM 41.0344 -112.0456 41° Northeast 323 372 16,000 1,659 Climbing Salt Lake Center
Sat 05:48:17 PM 41.1069 -111.9603 42° Northeast 344 396 17,600 1,610 Climbing Salt Lake Center
Sat 05:49:18 PM 41.1817 -111.8694 42° Northeast 357 411 19,300 1,512 Climbing Salt Lake Center
Sat 05:50:20 PM 41.2672 -111.7961 33° Northeast 367 422 20,700 1,232 Climbing Salt Lake Center
Sat 05:52:23 PM 41.4592 -111.6822 24° Northeast 383 441 23,100 1,109 Climbing Salt Lake Center
Sat 05:53:24 PM 41.5594 -111.6264 23° Northeast 394 453 24,100 976 Climbing Salt Lake Center
Sat 05:54:26 PM 41.6544 -111.5478 32° Northeast 401 461 25,100 1,024 Climbing Salt Lake Center
Sat 05:55:27 PM 41.7725 -111.4511 31° Northeast 415 478 26,200 976 Climbing Salt Lake Center
Sat 05:56:29 PM 41.8728 -111.3672 32° Northeast 423 487 27,100 927 Climbing Salt Lake Center
Sat 05:57:30 PM 41.9717 -111.2861 31° Northeast 417 480 28,100 780 Climbing Salt Lake Center
Sat 05:58:32 PM 42.0714 -111.2042 31° Northeast 421 484 28,700 439 Climbing Salt Lake Center
Sat 05:59:33 PM 42.1725 -111.1192 32° Northeast 427 491 29,000 146 Climbing Salt Lake Center
Sat 06:00:35 PM 42.2569 -111.0067 45° Northeast 432 497 29,000  Level Salt Lake Center
Sat 06:01:36 PM 42.3469 -110.8764 47° Northeast 437 503 29,000  Level Salt Lake Center
Sat 06:02:38 PM 42.4331 -110.7667 43° Northeast 442 509 29,000  Level Salt Lake Center
Sat 06:03:39 PM 42.5350 -110.6431 42° Northeast 440 506 29,000  Level Salt Lake Center
Sat 06:04:41 PM 42.6242 -110.5389 41° Northeast 441 507 29,000  Level Salt Lake Center
Sat 06:05:42 PM 42.7225 -110.4403 36° Northeast 440 506 29,000  Level Salt Lake Center
Sat 06:06:44 PM 42.8342 -110.3361 34° Northeast 437 503 29,000  Level Salt Lake Center
Sat 06:07:45 PM 42.9325 -110.2539 31° Northeast 435 501 29,000  Level Salt Lake Center
Sat 06:08:46 PM 43.0475 -110.1628 30° Northeast 431 496 29,000  Level Salt Lake Center
Sat 06:09:48 PM 43.1456 -110.0889 29° Northeast 424 488 29,000  Level Salt Lake Center
Sat 06:10:49 PM 43.2322 -109.9878 40° Northeast 426 490 29,000  Level Salt Lake Center
Sat 06:11:51 PM 43.3067 -109.8403 55° Northeast 436 502 29,000  Level Salt Lake Center
Sat 06:12:52 PM 43.3733 -109.7042 56° Northeast 431 496 29,000  Level Salt Lake Center
Sat 06:13:53 PM 43.4558 -109.5811 47° Northeast 439 505 29,000  Level Salt Lake Center
Sat 06:14:55 PM 43.5417 -109.4603 46° Northeast 442 509 29,000  Level Salt Lake Center
Sat 06:15:56 PM 43.6411 -109.3636 35° Northeast 442 509 29,000  Level Salt Lake Center
Sat 06:16:57 PM 43.7767 -109.2900 21° North 437 503 29,000  Level Salt Lake Center
Sat 06:17:59 PM 43.8908 -109.2486 15° North 427 491 29,000 -1,073 Level Salt Lake Center
Sat 06:19:00 PM 44.0061 -109.2233 North 420 483 26,800 -2,705 Descending Salt Lake Center
Sat 06:20:01 PM 44.1192 -109.2356 356° North 411 473 23,500 -3,492 Descending Salt Lake Center
Sat 06:21:02 PM 44.2239 -109.2575 351° North 389 448 19,700 -3,707 Descending Salt Lake Center
Sat 06:22:04 PM 44.3225 -109.2328 10° North 373 429 15,900 -2,341 Descending Salt Lake Center
Sat 06:23:05 PM 44.3956 -109.1533 38° Northeast 348 400 14,900 -1,279 Descending Salt Lake Center
Sat 06:24:06 PM 44.4444 -109.0633 53° Northeast 307 353 13,300 -1,770 Descending Salt Lake Center
Sat 06:25:07 PM 44.4806 -108.9872 56° Northeast 262 302 11,300 -1,967 Descending Salt Lake Center

Login

Don't have an account? Register now (free) for customized features, flight alerts, and more!